Time;durP1;ratioP1;P1;durP2;ratioP2;P2;SDS_P1;SDS_P2;PMS_P1;PMS_P2;Temp;Humidity;BMP_temperature;BMP_pressure;BME280_temperature;BME280_humidity;BME280_pressure;Samples;Min_cycle;Max_cycle;Signal;HPM_P1;HPM_P2
2023/08/03 00:00:18;;;;;;;6.07;1.42;;;19.00;99.90;;;;;;5045375;28;20729;-65
2023/08/03 00:02:46;;;;;;;10.02;1.67;;;19.10;99.90;;;;;;5050676;28;20233;-65
2023/08/03 00:05:17;;;;;;;8.13;1.38;;;19.10;99.90;;;;;;5064468;28;20202;-64
2023/08/03 00:07:45;;;;;;;5.35;1.60;;;19.20;99.90;;;;;;5064130;28;20206;-65
2023/08/03 00:10:13;;;;;;;8.35;1.23;;;19.20;99.90;;;;;;5064339;28;20644;-64
2023/08/03 00:12:41;;;;;;;9.75;1.35;;;19.10;99.90;;;;;;5064165;28;20225;-65
2023/08/03 00:15:09;;;;;;;4.93;1.05;;;19.20;99.90;;;;;;5064858;28;20665;-64
2023/08/03 00:17:39;;;;;;;6.07;1.50;;;19.20;99.90;;;;;;5064503;28;20224;-65
2023/08/03 00:20:08;;;;;;;7.35;1.42;;;19.20;99.90;;;;;;5062556;28;20213;-65
2023/08/03 00:22:36;;;;;;;10.30;1.55;;;19.20;99.90;;;;;;5049553;28;20310;-63
2023/08/03 00:25:04;;;;;;;5.43;1.00;;;19.30;99.90;;;;;;5053175;28;20202;-65
2023/08/03 00:27:32;;;;;;;11.75;1.70;;;19.30;99.90;;;;;;5057036;28;20201;-63
2023/08/03 00:30:01;;;;;;;8.65;1.25;;;19.40;99.90;;;;;;5064267;28;20202;-65
2023/08/03 00:32:29;;;;;;;9.02;0.80;;;19.30;99.90;;;;;;5064267;28;20255;-63
2023/08/03 00:34:58;;;;;;;6.18;1.10;;;19.30;99.90;;;;;;5064285;28;20204;-63
2023/08/03 00:37:26;;;;;;;4.45;1.20;;;19.30;99.90;;;;;;5065184;28;20202;-65
2023/08/03 00:39:54;;;;;;;6.97;1.00;;;19.30;99.90;;;;;;5064317;28;20229;-65
2023/08/03 00:42:22;;;;;;;11.10;1.38;;;19.30;99.90;;;;;;5063605;28;20247;-65
2023/08/03 00:44:50;;;;;;;7.30;0.90;;;19.30;99.90;;;;;;5064161;28;20205;-65
2023/08/03 00:47:18;;;;;;;3.47;1.08;;;19.30;99.90;;;;;;5063995;28;20202;-65
2023/08/03 00:49:46;;;;;;;5.07;1.10;;;19.30;99.90;;;;;;5063576;28;20284;-65
2023/08/03 00:52:15;;;;;;;6.30;1.08;;;19.30;99.90;;;;;;5063183;28;20225;-65
2023/08/03 00:54:44;;;;;;;6.70;1.10;;;19.30;99.90;;;;;;5063535;28;20206;-64
2023/08/03 00:57:11;;;;;;;8.02;1.15;;;19.30;99.90;;;;;;5063885;28;20197;-64
2023/08/03 00:59:39;;;;;;;6.55;1.00;;;19.20;99.90;;;;;;5063466;28;20221;-64
2023/08/03 01:02:08;;;;;;;5.50;1.02;;;19.30;99.90;;;;;;5064221;28;20222;-64
2023/08/03 01:04:36;;;;;;;7.85;0.88;;;19.30;99.90;;;;;;5064294;28;20238;-63
2023/08/03 01:07:05;;;;;;;3.72;0.88;;;19.20;99.90;;;;;;5064091;28;20193;-65
2023/08/03 01:09:34;;;;;;;4.43;1.13;;;19.20;99.90;;;;;;5063416;28;20197;-65
2023/08/03 01:12:02;;;;;;;4.70;0.95;;;19.20;99.90;;;;;;5061359;28;20225;-63
2023/08/03 01:14:30;;;;;;;6.05;0.88;;;19.20;99.90;;;;;;5049841;28;20218;-63
2023/08/03 01:16:58;;;;;;;3.13;0.90;;;19.10;99.90;;;;;;5051930;28;20186;-65
2023/08/03 01:19:26;;;;;;;6.10;0.80;;;19.20;99.90;;;;;;5051399;28;20269;-65
2023/08/03 01:21:54;;;;;;;2.03;0.88;;;19.20;99.90;;;;;;5043875;28;20268;-65
2023/08/03 01:24:23;;;;;;;2.67;0.63;;;19.20;99.90;;;;;;5058254;28;20205;-65
2023/08/03 01:26:51;;;;;;;6.63;0.95;;;19.20;99.90;;;;;;5064238;28;20206;-65
2023/08/03 01:29:19;;;;;;;2.15;0.52;;;19.20;99.90;;;;;;5052033;28;20604;-63
2023/08/03 01:31:47;;;;;;;3.70;0.70;;;19.20;99.90;;;;;;5055944;28;20210;-63
2023/08/03 01:34:15;;;;;;;2.47;0.50;;;19.20;99.90;;;;;;5066565;28;20815;-64
2023/08/03 01:36:43;;;;;;;2.78;0.50;;;19.20;99.90;;;;;;5066610;28;20201;-63
2023/08/03 01:39:10;;;;;;;3.28;0.70;;;19.10;99.90;;;;;;5066352;28;20253;-63
2023/08/03 01:41:41;;;;;;;4.78;0.85;;;19.10;99.90;;;;;;5065963;28;20228;-65
2023/08/03 01:44:21;;;;;;;4.65;0.70;;;19.10;99.90;;;;;;5066908;28;20216;-64
2023/08/03 01:46:49;;;;;;;2.97;0.60;;;19.10;99.90;;;;;;5069430;28;20613;-63
2023/08/03 01:49:17;;;;;;;5.97;0.88;;;19.00;99.90;;;;;;5068300;28;20259;-62
2023/08/03 01:51:45;;;;;;;1.52;0.43;;;19.00;99.90;;;;;;5068089;28;20227;-65
2023/08/03 01:54:14;;;;;;;4.50;0.60;;;19.00;99.90;;;;;;5071081;28;20237;-63
2023/08/03 01:56:43;;;;;;;4.72;0.60;;;18.90;99.90;;;;;;5072083;28;20189;-64
2023/08/03 01:59:11;;;;;;;2.53;0.90;;;18.80;99.90;;;;;;5070255;28;20232;-64
2023/08/03 02:01:39;;;;;;;3.90;0.60;;;18.70;99.90;;;;;;5072537;28;20217;-63
2023/08/03 02:04:07;;;;;;;5.18;0.55;;;18.50;99.90;;;;;;5071821;28;20198;-65
2023/08/03 02:06:36;;;;;;;1.10;0.40;;;18.40;99.90;;;;;;5070266;28;20201;-63
2023/08/03 02:09:04;;;;;;;3.53;0.82;;;18.30;99.90;;;;;;5035604;28;20275;-65
2023/08/03 02:11:34;;;;;;;4.20;0.70;;;18.20;99.90;;;;;;5070950;28;20216;-65
2023/08/03 02:14:03;;;;;;;2.85;0.60;;;18.20;99.90;;;;;;5070238;28;20217;-63
2023/08/03 02:16:32;;;;;;;5.60;0.80;;;18.10;99.90;;;;;;5071329;28;20232;-65
2023/08/03 02:19:00;;;;;;;4.15;1.00;;;18.10;99.90;;;;;;5070094;28;20208;-63
2023/08/03 02:21:28;;;;;;;3.10;0.57;;;18.10;99.90;;;;;;5069951;28;20275;-65
2023/08/03 02:23:55;;;;;;;5.70;0.77;;;18.10;99.90;;;;;;5070670;28;20661;-65
2023/08/03 02:26:24;;;;;;;4.50;0.73;;;18.00;99.90;;;;;;5071262;28;20232;-65
2023/08/03 02:28:51;;;;;;;4.63;0.75;;;18.00;99.90;;;;;;5071727;28;20198;-65
2023/08/03 02:31:21;;;;;;;3.75;0.95;;;18.00;99.90;;;;;;5070533;28;20201;-64
2023/08/03 02:33:49;;;;;;;3.13;0.60;;;18.00;99.90;;;;;;5070813;28;20221;-63
2023/08/03 02:36:16;;;;;;;1.17;0.60;;;18.00;99.90;;;;;;5072065;28;20277;-63
2023/08/03 02:38:44;;;;;;;1.95;0.45;;;18.00;99.90;;;;;;5060410;28;20217;-63
2023/08/03 02:41:12;;;;;;;6.35;0.52;;;18.00;99.90;;;;;;5070053;28;20222;-65
2023/08/03 02:43:40;;;;;;;2.40;0.68;;;17.90;99.90;;;;;;5068325;28;20237;-65
2023/08/03 02:46:08;;;;;;;3.42;0.50;;;17.90;99.90;;;;;;5069374;28;20206;-65
2023/08/03 02:48:37;;;;;;;3.65;0.40;;;17.90;99.90;;;;;;5069202;28;20229;-64
2023/08/03 02:51:05;;;;;;;3.33;0.70;;;17.90;99.90;;;;;;5069607;28;20198;-63
2023/08/03 02:53:33;;;;;;;4.22;0.82;;;17.90;99.90;;;;;;5071262;28;20248;-61
2023/08/03 02:56:01;;;;;;;2.97;0.60;;;17.80;99.90;;;;;;5069076;28;20202;-62
2023/08/03 02:58:29;;;;;;;3.45;0.63;;;17.80;99.90;;;;;;5069718;28;20205;-63
2023/08/03 03:00:57;;;;;;;2.35;0.50;;;17.80;99.90;;;;;;5068110;28;20221;-63
2023/08/03 03:03:25;;;;;;;1.48;0.60;;;17.70;99.90;;;;;;5055471;28;20221;-63
2023/08/03 03:05:54;;;;;;;2.45;0.47;;;17.80;99.90;;;;;;5038724;28;20202;-63
2023/08/03 03:08:22;;;;;;;2.03;0.50;;;17.70;99.90;;;;;;5048608;28;20292;-63
2023/08/03 03:10:50;;;;;;;2.90;0.75;;;17.70;99.90;;;;;;5053711;28;20290;-63
2023/08/03 03:13:18;;;;;;;4.40;0.77;;;17.70;99.90;;;;;;5053742;28;20760;-63
2023/08/03 03:15:46;;;;;;;3.28;0.57;;;17.60;99.90;;;;;;5053242;28;20225;-63
2023/08/03 03:18:14;;;;;;;4.47;0.93;;;17.60;99.90;;;;;;5053604;28;20260;-63
2023/08/03 03:20:42;;;;;;;4.80;0.90;;;17.60;99.90;;;;;;5039510;28;20231;-63
2023/08/03 03:23:11;;;;;;;1.88;0.60;;;17.50;99.90;;;;;;5041536;28;20300;-63
2023/08/03 03:25:39;;;;;;;2.58;0.77;;;17.50;99.90;;;;;;5051172;28;20279;-64
2023/08/03 03:28:07;;;;;;;7.65;1.08;;;17.50;99.90;;;;;;5042700;28;20207;-63
2023/08/03 03:30:35;;;;;;;3.72;0.80;;;17.50;99.90;;;;;;5036506;28;20203;-63
2023/08/03 03:33:02;;;;;;;5.05;1.00;;;17.50;99.90;;;;;;5019120;28;20295;-63
2023/08/03 03:35:31;;;;;;;5.43;0.77;;;17.40;99.90;;;;;;5051052;28;20604;-63
2023/08/03 03:37:58;;;;;;;4.05;0.90;;;17.40;99.90;;;;;;5052078;28;20669;-63
2023/08/03 03:40:28;;;;;;;7.90;1.10;;;17.40;99.90;;;;;;5052615;28;20603;-63
2023/08/03 03:42:55;;;;;;;3.88;0.75;;;17.40;99.90;;;;;;5052956;28;20257;-63
2023/08/03 03:45:23;;;;;;;3.67;0.82;;;17.30;99.90;;;;;;5052798;28;20198;-63
2023/08/03 03:47:51;;;;;;;4.22;0.80;;;17.30;99.90;;;;;;5053272;28;20212;-63
2023/08/03 03:50:19;;;;;;;7.38;1.02;;;17.30;99.90;;;;;;5053029;28;20263;-63
2023/08/03 03:52:47;;;;;;;2.28;0.80;;;17.30;99.90;;;;;;5052943;28;20304;-63
2023/08/03 03:55:15;;;;;;;5.05;0.60;;;17.30;99.90;;;;;;5052872;28;20197;-63
2023/08/03 03:57:44;;;;;;;6.28;0.95;;;17.30;99.90;;;;;;5052789;28;20236;-63
2023/08/03 04:00:12;;;;;;;3.35;0.70;;;17.30;99.90;;;;;;5051104;28;20248;-63
2023/08/03 04:02:40;;;;;;;6.47;0.90;;;17.30;99.90;;;;;;5049756;28;20295;-63
2023/08/03 04:05:08;;;;;;;4.15;0.85;;;17.30;99.90;;;;;;5051572;28;20201;-63
2023/08/03 04:07:36;;;;;;;3.58;0.80;;;17.30;99.90;;;;;;5035624;28;20248;-63
2023/08/03 04:10:05;;;;;;;3.42;0.77;;;17.40;99.90;;;;;;5028451;28;20302;-63
2023/08/03 04:12:33;;;;;;;2.60;0.70;;;17.40;99.90;;;;;;5037773;28;20233;-63
2023/08/03 04:15:02;;;;;;;3.88;0.80;;;17.40;99.90;;;;;;5032760;28;20268;-63
2023/08/03 04:17:30;;;;;;;9.98;0.82;;;17.40;99.90;;;;;;5043513;28;20240;-63
2023/08/03 04:19:58;;;;;;;7.15;0.82;;;17.30;99.90;;;;;;5035054;28;20252;-63
2023/08/03 04:22:25;;;;;;;6.13;1.10;;;17.30;99.90;;;;;;5043294;28;20313;-63
2023/08/03 04:24:53;;;;;;;4.13;0.82;;;17.30;99.90;;;;;;5051896;28;20274;-63
2023/08/03 04:27:21;;;;;;;7.93;0.90;;;17.30;99.90;;;;;;5034563;28;20293;-64
2023/08/03 04:29:49;;;;;;;3.00;0.75;;;17.30;99.90;;;;;;5036917;28;20297;-63
2023/08/03 04:32:18;;;;;;;5.22;0.90;;;17.30;99.90;;;;;;5035270;28;20258;-63
2023/08/03 04:34:46;;;;;;;3.97;0.98;;;17.30;99.90;;;;;;5038790;28;20238;-63
2023/08/03 04:37:14;;;;;;;1.60;0.60;;;17.30;99.90;;;;;;5040349;28;20259;-63
2023/08/03 04:39:42;;;;;;;3.20;1.00;;;17.30;99.90;;;;;;5036736;28;20678;-63
2023/08/03 04:42:10;;;;;;;5.07;0.60;;;17.30;99.90;;;;;;5043408;28;20315;-63
2023/08/03 04:44:37;;;;;;;2.60;0.60;;;17.30;99.90;;;;;;5033481;28;20241;-63
2023/08/03 04:47:05;;;;;;;3.17;0.75;;;17.30;99.90;;;;;;5051684;28;20230;-63
2023/08/03 04:49:34;;;;;;;3.22;0.60;;;17.30;99.90;;;;;;5051846;28;20605;-63
2023/08/03 04:52:02;;;;;;;5.82;0.80;;;17.30;99.90;;;;;;5044276;28;20234;-63
2023/08/03 04:54:30;;;;;;;2.50;0.90;;;17.30;99.90;;;;;;5036719;28;20210;-63
2023/08/03 04:56:58;;;;;;;4.30;0.90;;;17.30;99.90;;;;;;5051128;28;20202;-63
2023/08/03 04:59:27;;;;;;;6.63;0.95;;;17.30;99.90;;;;;;5051564;28;20202;-63
2023/08/03 05:01:55;;;;;;;3.58;0.55;;;17.30;99.90;;;;;;5051270;28;20294;-63
2023/08/03 05:04:23;;;;;;;4.32;0.70;;;17.30;99.90;;;;;;5051575;28;20224;-63
2023/08/03 05:06:52;;;;;;;3.13;0.80;;;17.30;99.90;;;;;;5051448;28;20275;-63
2023/08/03 05:09:20;;;;;;;1.52;0.88;;;17.20;99.90;;;;;;5051618;28;20653;-63
2023/08/03 05:11:48;;;;;;;2.42;0.57;;;17.20;99.90;;;;;;5051525;28;20288;-62
2023/08/03 05:14:15;;;;;;;4.07;0.63;;;17.20;99.90;;;;;;5050181;28;20292;-62
2023/08/03 05:16:43;;;;;;;1.80;0.55;;;17.20;99.90;;;;;;5036400;28;20261;-62
2023/08/03 05:19:11;;;;;;;3.17;0.68;;;17.30;99.90;;;;;;5043845;28;20198;-62
2023/08/03 05:21:40;;;;;;;3.08;0.75;;;17.40;99.90;;;;;;5039885;28;20249;-62
2023/08/03 05:24:09;;;;;;;5.50;0.70;;;17.40;99.90;;;;;;5034091;28;20724;-62
2023/08/03 05:26:37;;;;;;;0.77;0.50;;;17.40;99.90;;;;;;5037527;28;20203;-62
2023/08/03 05:29:05;;;;;;;4.35;1.05;;;17.50;99.90;;;;;;5055996;28;20226;-62
2023/08/03 05:31:33;;;;;;;2.97;0.70;;;17.50;99.90;;;;;;5052110;28;20582;-56
2023/08/03 05:34:00;;;;;;;2.97;0.60;;;17.60;99.90;;;;;;5051266;28;20218;-60
2023/08/03 05:36:28;;;;;;;2.17;0.73;;;17.70;99.90;;;;;;5051123;28;20236;-55
2023/08/03 05:38:56;;;;;;;2.97;0.80;;;17.70;99.90;;;;;;5051336;28;20275;-57
2023/08/03 05:41:27;;;;;;;3.55;1.00;;;17.80;99.90;;;;;;5050971;28;20618;-57
2023/08/03 05:43:55;;;;;;;4.53;0.70;;;17.70;99.90;;;;;;5050970;28;20239;-56
2023/08/03 05:46:23;;;;;;;2.92;0.63;;;17.60;99.90;;;;;;5050974;28;20197;-55
2023/08/03 05:48:52;;;;;;;1.88;0.50;;;17.60;99.90;;;;;;5051296;28;20207;-56
2023/08/03 05:51:28;;;;;;;2.42;0.80;;;17.60;99.90;;;;;;5050937;28;20201;-57
2023/08/03 05:53:56;;;;;;;4.53;0.60;;;17.60;99.90;;;;;;5036266;28;20308;-57
2023/08/03 05:56:25;;;;;;;6.40;0.80;;;17.60;99.90;;;;;;5035859;28;20234;-57
2023/08/03 05:58:54;;;;;;;2.92;0.70;;;17.60;99.90;;;;;;5050066;28;20267;-56
2023/08/03 06:01:23;;;;;;;2.92;0.85;;;17.70;99.90;;;;;;5050940;28;20198;-57
2023/08/03 06:03:52;;;;;;;2.63;1.00;;;17.70;99.90;;;;;;5050921;28;20275;-57
2023/08/03 06:06:20;;;;;;;4.97;1.00;;;17.70;99.90;;;;;;5050485;28;20209;-56
2023/08/03 06:08:49;;;;;;;3.47;0.90;;;17.70;99.90;;;;;;5051236;28;20247;-55
2023/08/03 06:11:20;;;;;;;4.65;1.00;;;17.80;99.90;;;;;;5051246;28;20217;-57
2023/08/03 06:13:55;;;;;;;3.33;0.95;;;17.80;99.90;;;;;;5050974;28;20268;-57
2023/08/03 06:16:24;;;;;;;4.78;0.73;;;17.80;99.90;;;;;;5050456;28;20581;-58
2023/08/03 06:18:53;;;;;;;5.15;1.10;;;17.80;99.90;;;;;;5050563;28;20206;-57
2023/08/03 06:21:21;;;;;;;3.22;0.98;;;17.90;99.90;;;;;;5051029;28;20194;-55
2023/08/03 06:23:49;;;;;;;4.03;0.88;;;17.90;99.90;;;;;;5050982;28;20226;-56
2023/08/03 06:26:18;;;;;;;3.42;1.10;;;18.00;99.90;;;;;;5050591;28;20237;-58
2023/08/03 06:28:47;;;;;;;2.38;1.02;;;18.00;99.90;;;;;;5050886;28;20296;-59
2023/08/03 06:31:18;;;;;;;3.70;1.02;;;18.00;99.90;;;;;;5052065;28;20643;-56
2023/08/03 06:33:47;;;;;;;2.75;0.63;;;18.00;99.90;;;;;;5054725;28;20240;-57
2023/08/03 06:36:17;;;;;;;3.90;0.88;;;18.10;99.90;;;;;;5054040;28;20646;-57
2023/08/03 06:38:45;;;;;;;5.95;1.00;;;18.10;99.90;;;;;;5054642;28;20288;-56
2023/08/03 06:41:13;;;;;;;4.07;0.98;;;18.10;99.90;;;;;;5054360;28;20241;-57
2023/08/03 06:43:41;;;;;;;6.13;1.08;;;18.10;99.90;;;;;;5054179;28;20226;-59
2023/08/03 06:46:09;;;;;;;7.22;1.10;;;18.00;99.90;;;;;;5054021;28;20311;-58
2023/08/03 06:48:38;;;;;;;4.65;1.20;;;17.90;99.90;;;;;;5054287;28;20615;-60
2023/08/03 06:51:06;;;;;;;4.97;1.10;;;17.80;99.90;;;;;;5054427;28;20263;-60
2023/08/03 06:53:34;;;;;;;5.05;1.10;;;17.70;99.90;;;;;;5054033;28;20301;-58
2023/08/03 06:56:03;;;;;;;3.80;0.70;;;17.70;99.90;;;;;;5053935;28;20241;-60
2023/08/03 06:58:31;;;;;;;4.97;1.00;;;17.70;99.90;;;;;;5053117;28;20631;-59
2023/08/03 07:00:59;;;;;;;6.07;0.80;;;17.70;99.90;;;;;;5053160;28;20284;-59
2023/08/03 07:03:27;;;;;;;3.45;0.93;;;17.70;99.90;;;;;;5054195;28;20237;-59
2023/08/03 07:05:57;;;;;;;1.58;0.60;;;17.70;99.90;;;;;;5053530;28;20206;-59
2023/08/03 07:08:25;;;;;;;5.53;1.10;;;17.80;99.90;;;;;;5054519;28;20208;-60
2023/08/03 07:10:53;;;;;;;4.97;1.10;;;17.80;99.90;;;;;;5053389;28;20292;-60
2023/08/03 07:13:21;;;;;;;4.60;1.10;;;17.90;99.90;;;;;;5054444;28;20299;-60
2023/08/03 07:15:48;;;;;;;6.15;1.30;;;18.00;99.90;;;;;;5053724;28;20240;-59
2023/08/03 07:18:16;;;;;;;3.05;0.98;;;18.00;99.90;;;;;;5053617;28;20658;-58
2023/08/03 07:20:44;;;;;;;5.05;0.70;;;18.00;99.90;;;;;;5054005;28;20209;-57
2023/08/03 07:23:14;;;;;;;3.33;0.93;;;18.00;99.90;;;;;;5053447;28;20213;-58
2023/08/03 07:25:42;;;;;;;9.10;0.93;;;17.90;99.90;;;;;;5052890;28;20205;-60
2023/08/03 07:28:10;;;;;;;4.82;1.00;;;17.90;99.90;;;;;;5053320;28;20212;-60
2023/08/03 07:30:37;;;;;;;3.53;0.90;;;17.90;99.90;;;;;;5053625;28;20205;-59
2023/08/03 07:33:05;;;;;;;4.55;1.25;;;17.90;99.90;;;;;;5053331;28;20765;-60
2023/08/03 07:35:33;;;;;;;6.00;1.08;;;17.90;99.90;;;;;;5053051;28;20588;-59
2023/08/03 07:38:01;;;;;;;7.10;1.02;;;17.90;99.90;;;;;;5053006;28;20233;-58
2023/08/03 07:40:30;;;;;;;4.18;1.00;;;17.90;99.90;;;;;;5053256;28;20237;-58
2023/08/03 07:42:58;;;;;;;2.13;0.60;;;18.00;99.90;;;;;;5052896;28;20222;-59
2023/08/03 07:45:26;;;;;;;5.10;0.93;;;18.00;99.90;;;;;;5052819;28;20252;-59
2023/08/03 07:47:57;;;;;;;4.90;0.70;;;18.00;99.90;;;;;;5053368;28;20202;-59
2023/08/03 07:50:25;;;;;;;8.82;1.40;;;18.00;99.90;;;;;;5052897;28;20205;-59
2023/08/03 07:52:52;;;;;;;3.78;1.00;;;18.00;99.90;;;;;;5053140;28;20316;-59
2023/08/03 07:55:20;;;;;;;3.10;0.80;;;18.10;99.90;;;;;;5052703;28;20208;-60
2023/08/03 07:57:49;;;;;;;6.75;1.08;;;18.20;99.90;;;;;;5052995;28;20634;-60
2023/08/03 08:00:17;;;;;;;6.28;1.02;;;18.30;99.90;;;;;;5052874;28;20201;-58
2023/08/03 08:02:45;;;;;;;10.63;1.55;;;18.40;99.90;;;;;;5052712;28;20617;-59
2023/08/03 08:05:13;;;;;;;6.30;1.27;;;18.40;99.90;;;;;;5050305;28;20200;-60
2023/08/03 08:07:41;;;;;;;2.85;0.82;;;18.30;99.90;;;;;;5051318;28;20230;-59
2023/08/03 08:10:11;;;;;;;8.57;1.30;;;18.30;99.90;;;;;;5052783;28;20201;-58
2023/08/03 08:12:38;;;;;;;4.15;1.10;;;18.20;99.90;;;;;;5039159;28;20222;-60
2023/08/03 08:15:08;;;;;;;3.20;1.02;;;18.20;99.90;;;;;;5038276;28;20286;-60
2023/08/03 08:17:36;;;;;;;5.20;1.10;;;18.10;99.90;;;;;;5033663;28;20604;-61
2023/08/03 08:20:05;;;;;;;7.78;1.10;;;18.10;99.90;;;;;;5037459;28;20206;-62
2023/08/03 08:22:33;;;;;;;5.30;1.13;;;18.10;99.90;;;;;;5048874;28;20226;-61
2023/08/03 08:25:01;;;;;;;4.65;0.98;;;18.10;99.90;;;;;;5019517;28;20225;-63
2023/08/03 08:27:31;;;;;;;7.05;1.13;;;18.20;99.90;;;;;;5052397;28;20206;-62
2023/08/03 08:30:00;;;;;;;6.38;1.35;;;18.20;99.90;;;;;;5052080;28;20251;-62
2023/08/03 08:32:29;;;;;;;4.20;1.10;;;18.20;99.90;;;;;;5052257;28;20232;-62
2023/08/03 08:34:57;;;;;;;2.00;0.85;;;18.20;99.90;;;;;;5044455;28;20229;-61
2023/08/03 08:37:27;;;;;;;3.70;0.90;;;18.20;99.90;;;;;;5052459;28;20277;-62
2023/08/03 08:39:55;;;;;;;3.88;0.90;;;18.20;99.90;;;;;;5052032;28;20202;-62
2023/08/03 08:42:23;;;;;;;3.30;0.70;;;18.20;99.90;;;;;;5052053;28;20778;-62
2023/08/03 08:44:51;;;;;;;6.13;1.02;;;18.20;99.90;;;;;;5050973;28;20221;-62
2023/08/03 08:47:19;;;;;;;4.05;1.00;;;18.20;99.90;;;;;;5052297;28;20247;-59
2023/08/03 08:49:49;;;;;;;6.80;1.30;;;18.20;99.90;;;;;;5051767;28;20256;-59
2023/08/03 08:52:18;;;;;;;5.63;0.88;;;18.20;99.90;;;;;;5050864;28;20249;-59
2023/08/03 08:54:46;;;;;;;4.03;0.85;;;18.20;99.90;;;;;;5051409;28;20202;-60
2023/08/03 08:57:17;;;;;;;1.58;0.90;;;18.20;99.90;;;;;;5051860;28;20229;-60
2023/08/03 09:00:06;;;;;;;5.13;1.02;;;18.20;99.90;;;;;;5051891;28;20214;-59
2023/08/03 09:02:35;;;;;;;5.65;1.35;;;18.10;99.90;;;;;;5051836;28;20253;-59
2023/08/03 09:05:13;;;;;;;5.53;1.00;;;18.10;99.90;;;;;;5018875;28;20685;-59
2023/08/03 09:07:42;;;;;;;4.00;0.90;;;18.20;99.90;;;;;;5051599;28;20271;-59
2023/08/03 09:10:10;;;;;;;5.13;1.10;;;18.20;99.90;;;;;;5051555;28;20202;-59
2023/08/03 09:12:39;;;;;;;2.85;0.95;;;18.30;99.90;;;;;;5075966;22;20734;-63
2023/08/03 09:15:08;;;;;;;5.07;1.05;;;18.40;99.90;;;;;;5046756;28;20190;-63
2023/08/03 09:17:36;;;;;;;2.72;1.00;;;18.50;99.90;;;;;;5044171;28;20621;-63
2023/08/03 09:20:05;;;;;;;5.53;1.15;;;18.60;99.90;;;;;;5059082;28;20260;-63
2023/08/03 09:22:42;;;;;;;4.95;1.05;;;18.60;99.90;;;;;;5035213;28;20265;-62
2023/08/03 09:25:13;;;;;;;2.88;0.80;;;18.80;99.90;;;;;;5036383;28;20312;-62
2023/08/03 09:27:55;;;;;;;2.53;1.00;;;18.90;99.90;;;;;;5040650;28;20202;-62
2023/08/03 09:30:26;;;;;;;1.88;0.75;;;18.90;99.90;;;;;;5046323;28;20280;-62
2023/08/03 09:33:14;;;;;;;2.00;0.73;;;19.00;99.90;;;;;;5051200;28;20225;-62
2023/08/03 09:35:45;;;;;;;6.07;0.80;;;19.00;99.90;;;;;;5041381;28;20238;-62
2023/08/03 09:38:25;;;;;;;4.28;1.25;;;18.90;99.90;;;;;;5045259;28;20276;-62
2023/08/03 09:40:53;;;;;;;3.80;1.10;;;18.90;99.90;;;;;;5034356;28;20210;-62
2023/08/03 09:43:21;;;;;;;1.33;0.82;;;18.90;99.90;;;;;;5045131;28;20202;-62
2023/08/03 09:45:52;;;;;;;6.93;1.00;;;18.70;99.90;;;;;;5041145;28;20313;-62
2023/08/03 09:48:20;;;;;;;4.85;0.85;;;18.70;99.90;;;;;;5036946;28;20284;-62
2023/08/03 09:50:50;;;;;;;3.38;0.85;;;18.60;99.90;;;;;;5047526;28;20301;-63
2023/08/03 09:53:20;;;;;;;6.20;1.30;;;18.70;99.90;;;;;;5037020;28;20202;-62
2023/08/03 09:55:57;;;;;;;7.20;0.93;;;18.90;99.90;;;;;;5040879;28;20210;-62
2023/08/03 09:58:29;;;;;;;4.70;1.10;;;19.00;99.90;;;;;;5046476;28;20201;-62
2023/08/03 10:00:59;;;;;;;2.00;0.70;;;19.20;99.90;;;;;;5048017;28;20618;-63
2023/08/03 10:03:28;;;;;;;3.35;0.90;;;19.40;99.90;;;;;;5045911;28;20210;-62
2023/08/03 10:06:08;;;;;;;3.28;0.93;;;19.60;99.90;;;;;;5039137;28;20217;-62
2023/08/03 10:08:39;;;;;;;4.97;0.70;;;19.80;99.90;;;;;;5035159;28;20205;-62
2023/08/03 10:11:10;;;;;;;3.50;0.75;;;20.30;99.90;;;;;;5039106;28;20264;-62
2023/08/03 10:13:41;;;;;;;1.73;0.60;;;20.40;99.90;;;;;;5054601;28;20284;-62
2023/08/03 10:16:09;;;;;;;1.90;0.50;;;20.30;99.90;;;;;;5052941;28;20205;-62
2023/08/03 10:18:37;;;;;;;1.48;0.63;;;20.10;99.90;;;;;;5051784;28;20205;-62
2023/08/03 10:21:08;;;;;;;5.55;0.65;;;19.80;99.90;;;;;;5051645;28;20296;-62
2023/08/03 10:23:38;;;;;;;3.78;0.60;;;19.50;99.90;;;;;;5051847;28;20201;-63
2023/08/03 10:26:07;;;;;;;3.58;0.63;;;19.40;99.90;;;;;;5049286;28;20252;-62
2023/08/03 10:28:48;;;;;;;2.97;0.45;;;19.30;99.90;;;;;;5038315;28;20238;-62
2023/08/03 10:31:18;;;;;;;0.45;0.45;;;19.30;99.90;;;;;;5040153;28;20303;-62
2023/08/03 10:34:08;;;;;;;1.55;0.60;;;19.30;99.90;;;;;;5044677;28;20684;-62
2023/08/03 10:36:38;;;;;;;1.08;0.45;;;19.20;99.90;;;;;;5050603;28;20233;-63
2023/08/03 10:39:11;;;;;;;3.35;0.52;;;19.30;99.90;;;;;;5050713;28;20197;-63
2023/08/03 10:41:40;;;;;;;3.60;0.93;;;19.40;99.90;;;;;;5049270;28;20221;-63
2023/08/03 10:44:27;;;;;;;0.50;0.43;;;19.50;99.90;;;;;;5043945;28;20308;-63
2023/08/03 10:46:57;;;;;;;2.33;0.80;;;19.60;99.90;;;;;;5049588;28;20271;-63
2023/08/03 10:49:49;;;;;;;2.45;0.60;;;19.70;99.90;;;;;;5047615;28;20557;-62
2023/08/03 10:52:26;;;;;;;2.08;0.63;;;19.70;99.90;;;;;;5040304;28;20586;-62
2023/08/03 10:54:54;;;;;;;2.28;0.50;;;19.70;99.90;;;;;;5036329;28;20202;-63
2023/08/03 10:57:24;;;;;;;3.42;0.60;;;19.70;99.90;;;;;;5047504;28;20210;-63
2023/08/03 10:59:54;;;;;;;2.83;0.40;;;19.70;99.90;;;;;;5044614;28;20704;-63
2023/08/03 11:02:25;;;;;;;0.30;0.30;;;19.70;99.90;;;;;;5039031;28;20257;-63
2023/08/03 11:04:54;;;;;;;0.85;0.40;;;19.60;99.90;;;;;;5050136;28;20593;-63
2023/08/03 11:07:23;;;;;;;2.05;0.38;;;19.60;99.90;;;;;;5040485;28;20284;-62
2023/08/03 11:09:52;;;;;;;0.88;0.40;;;19.60;99.90;;;;;;5043480;28;20206;-63
2023/08/03 11:12:22;;;;;;;2.38;0.60;;;19.80;99.90;;;;;;5047415;28;20233;-63
2023/08/03 11:14:51;;;;;;;2.88;0.30;;;19.90;99.90;;;;;;5052412;28;20202;-63
2023/08/03 11:17:23;;;;;;;1.48;0.47;;;20.10;99.90;;;;;;5052959;28;20239;-63
2023/08/03 11:19:51;;;;;;;2.60;0.43;;;20.40;99.90;;;;;;5052350;28;20807;-63
2023/08/03 11:22:21;;;;;;;4.95;0.45;;;20.50;99.90;;;;;;5049945;28;20221;-63
2023/08/03 11:24:49;;;;;;;4.97;0.50;;;20.60;99.90;;;;;;5051024;28;20264;-63
2023/08/03 11:27:17;;;;;;;2.10;0.40;;;20.60;99.90;;;;;;5049871;28;20292;-63
2023/08/03 11:29:45;;;;;;;0.38;0.30;;;20.50;99.90;;;;;;5052920;28;20303;-63
2023/08/03 11:32:23;;;;;;;0.28;0.20;;;20.30;99.90;;;;;;5051919;28;20253;-62
2023/08/03 11:34:56;;;;;;;2.38;0.30;;;20.20;99.90;;;;;;5050581;28;20284;-62
2023/08/03 11:37:25;;;;;;;1.00;0.20;;;20.00;99.90;;;;;;5044838;28;20204;-62
2023/08/03 11:39:52;;;;;;;0.45;0.22;;;19.90;99.90;;;;;;5033122;28;20214;-61
2023/08/03 11:42:20;;;;;;;0.50;0.20;;;19.90;99.90;;;;;;5047654;28;20308;-62
2023/08/03 11:44:48;;;;;;;1.77;0.30;;;19.90;99.90;;;;;;5036441;28;20206;-62
2023/08/03 11:47:25;;;;;;;1.67;0.50;;;20.10;99.90;;;;;;5052437;28;20213;-62
2023/08/03 11:49:53;;;;;;;0.45;0.30;;;20.50;99.90;;;;;;5047879;28;20256;-62
2023/08/03 11:52:21;;;;;;;1.08;0.15;;;21.00;99.90;;;;;;5052907;28;20225;-63
2023/08/03 11:54:50;;;;;;;4.20;0.20;;;21.50;99.90;;;;;;5045728;28;20649;-60
2023/08/03 12:00:06;;;;;;;0.17;0.17;;;22.20;99.90;;;;;;5040400;28;20205;-61
2023/08/03 12:02:39;;;;;;;2.58;0.40;;;22.10;99.90;;;;;;5042153;28;20306;-61
2023/08/03 12:05:07;;;;;;;0.20;0.20;;;21.90;99.90;;;;;;5043624;28;20214;-61
2023/08/03 12:07:39;;;;;;;1.75;0.20;;;21.80;99.90;;;;;;5032841;28;20717;-60
2023/08/03 12:10:12;;;;;;;1.58;0.43;;;21.60;99.90;;;;;;5045142;28;20259;-62
2023/08/03 12:12:44;;;;;;;2.17;0.30;;;21.60;99.90;;;;;;5035332;28;20241;-60
2023/08/03 12:15:12;;;;;;;0.20;0.20;;;21.60;99.90;;;;;;5046869;28;20194;-62
2023/08/03 12:17:41;;;;;;;2.05;0.10;;;21.50;99.90;;;;;;5046350;28;20201;-61
2023/08/03 12:20:10;;;;;;;4.63;0.30;;;21.40;99.90;;;;;;5059375;28;20306;-60
2023/08/03 12:22:38;;;;;;;0.22;0.15;;;21.40;99.90;;;;;;5035895;28;20289;-60
2023/08/03 12:25:06;;;;;;;0.20;0.15;;;21.50;99.90;;;;;;5047669;28;20209;-61
2023/08/03 12:27:35;;;;;;;1.42;0.10;;;21.50;99.90;;;;;;5040416;28;20289;-61
2023/08/03 12:30:06;;;;;;;2.55;0.20;;;21.40;99.90;;;;;;5051289;28;20738;-61
2023/08/03 12:32:34;;;;;;;0.10;0.10;;;21.20;99.90;;;;;;5048451;28;20324;-61
2023/08/03 12:35:04;;;;;;;0.20;0.20;;;21.10;99.90;;;;;;5043357;28;20614;-60
2023/08/03 12:37:32;;;;;;;1.02;0.20;;;20.90;99.90;;;;;;5032140;28;20277;-62
2023/08/03 12:40:00;;;;;;;1.38;0.30;;;20.60;99.90;;;;;;5042839;28;20278;-63
2023/08/03 12:42:28;;;;;;;0.30;0.25;;;20.50;99.90;;;;;;5036597;28;20248;-61
2023/08/03 12:44:56;;;;;;;0.38;0.38;;;20.40;99.90;;;;;;5048315;28;20210;-61
2023/08/03 12:47:24;;;;;;;0.98;0.50;;;20.40;99.90;;;;;;5038660;28;20253;-61
2023/08/03 12:49:53;;;;;;;0.68;0.22;;;20.70;99.90;;;;;;5041394;28;20236;-61
2023/08/03 12:52:22;;;;;;;0.25;0.25;;;21.00;99.90;;;;;;5046355;28;20253;-61
2023/08/03 12:54:50;;;;;;;0.65;0.40;;;21.40;99.90;;;;;;5035133;28;20216;-61
2023/08/03 12:57:18;;;;;;;0.32;0.32;;;21.80;99.90;;;;;;5051131;28;20193;-61